createdAt,value
2024-04-08T00:35:24.682Z,19.20
2024-04-08T00:40:26.729Z,19.20
2024-04-08T00:45:28.778Z,19.20
2024-04-08T00:50:31.120Z,19.20
2024-04-08T00:55:35.373Z,19.30
2024-04-08T01:00:37.370Z,19.30
2024-04-08T01:05:40.130Z,19.20
2024-04-08T01:10:42.501Z,19.30
2024-04-08T01:15:44.953Z,19.30
2024-04-08T01:20:46.917Z,19.40
2024-04-08T01:25:48.948Z,19.30
2024-04-08T01:30:51.236Z,19.40
2024-04-08T01:35:54.755Z,19.40
2024-04-08T01:40:57.069Z,19.40
2024-04-08T01:45:59.022Z,19.40
2024-04-08T01:51:00.940Z,19.50
2024-04-08T01:56:02.897Z,19.50
2024-04-08T02:01:04.971Z,19.50
2024-04-08T02:06:07.045Z,19.40
2024-04-08T02:11:08.986Z,19.40
2024-04-08T02:16:11.310Z,19.40
2024-04-08T02:21:13.644Z,19.30
2024-04-08T02:26:15.736Z,19.30
2024-04-08T02:31:17.659Z,19.10
2024-04-08T02:36:19.636Z,18.90
2024-04-08T02:41:21.948Z,18.70
2024-04-08T02:46:23.868Z,18.60
2024-04-08T02:51:25.850Z,18.60
2024-04-08T02:56:27.863Z,18.60
2024-04-08T03:01:29.824Z,18.60
2024-04-08T03:06:36.363Z,18.60
2024-04-08T03:11:38.577Z,18.60
2024-04-08T03:16:40.595Z,18.50
2024-04-08T03:21:43.126Z,18.40
2024-04-08T03:26:45.078Z,18.40
2024-04-08T03:31:48.661Z,18.00
2024-04-08T03:36:50.783Z,17.60
2024-04-08T03:41:54.404Z,17.50
2024-04-08T03:46:56.438Z,17.60
2024-04-08T03:51:58.431Z,17.50
2024-04-08T03:57:00.408Z,17.60
2024-04-08T04:02:02.353Z,17.70
2024-04-08T04:07:04.379Z,17.70
2024-04-08T04:12:08.197Z,17.80
2024-04-08T04:17:10.147Z,17.90
2024-04-08T04:22:12.090Z,17.90
2024-04-08T04:27:14.033Z,17.90
2024-04-08T04:32:16.004Z,18.10
2024-04-08T04:37:17.967Z,18.00
2024-04-08T04:42:19.994Z,18.10
2024-04-08T04:47:22.028Z,18.10
2024-04-08T04:52:24.022Z,18.10
2024-04-08T04:57:26.026Z,18.00
2024-04-08T05:02:28.007Z,18.00
2024-04-08T05:07:29.945Z,17.90
2024-04-08T05:12:31.919Z,17.80
2024-04-08T05:17:34.005Z,17.80
2024-04-08T05:22:35.989Z,17.70
2024-04-08T05:27:37.912Z,17.60
2024-04-08T05:32:39.951Z,17.60
2024-04-08T05:37:41.934Z,17.60
2024-04-08T05:42:47.339Z,17.50
2024-04-08T05:47:55.455Z,17.60
2024-04-08T05:52:57.589Z,17.60
2024-04-08T05:57:59.680Z,17.70
2024-04-08T06:03:01.942Z,17.70
2024-04-08T06:08:04.477Z,17.70
2024-04-08T06:13:07.085Z,17.80
2024-04-08T06:18:09.288Z,17.90
2024-04-08T06:23:11.314Z,18.00
2024-04-08T06:28:13.380Z,18.20
2024-04-08T06:33:15.422Z,18.30
2024-04-08T06:38:17.461Z,18.40
2024-04-08T06:43:19.501Z,18.50
2024-04-08T06:48:21.439Z,18.60
2024-04-08T06:53:24.993Z,18.80
2024-04-08T06:58:27.060Z,19.00
2024-04-08T07:03:29.019Z,19.20
2024-04-08T07:08:31.059Z,19.40
2024-04-08T07:13:33.054Z,19.60
2024-04-08T07:18:35.673Z,19.70
2024-04-08T07:23:37.949Z,19.90
2024-04-08T07:28:41.616Z,20.10
2024-04-08T07:33:43.598Z,20.30
2024-04-08T07:38:57.433Z,20.50
2024-04-08T07:44:04.475Z,20.60
2024-04-08T07:49:06.474Z,20.80
2024-04-08T07:54:08.652Z,21.00
2024-04-08T07:59:10.682Z,21.20
2024-04-08T08:04:13.124Z,21.40
2024-04-08T08:09:15.144Z,21.60
2024-04-08T08:14:17.217Z,21.80
2024-04-08T08:19:19.173Z,22.00
2024-04-08T08:24:21.567Z,22.20
2024-04-08T08:29:23.652Z,22.50
2024-04-08T08:34:25.572Z,22.80
2024-04-08T08:39:27.512Z,22.80
2024-04-08T08:44:31.736Z,22.60
2024-04-08T08:49:33.693Z,22.50
2024-04-08T08:54:35.635Z,22.50
2024-04-08T08:59:39.748Z,22.70
2024-04-08T09:04:42.718Z,22.90
2024-04-08T09:09:57.997Z,23.00
2024-04-08T09:15:00.022Z,23.10
2024-04-08T09:20:05.286Z,23.30
2024-04-08T09:25:13.867Z,23.30
2024-04-08T09:30:16.671Z,23.50
2024-04-08T09:35:18.705Z,23.90
2024-04-08T09:40:22.053Z,24.10
2024-04-08T09:45:24.090Z,24.40
2024-04-08T09:50:28.631Z,24.50
2024-04-08T09:55:30.985Z,24.50
2024-04-08T10:00:36.711Z,24.60
2024-04-08T10:05:39.691Z,24.70
2024-04-08T10:10:41.932Z,24.90
2024-04-08T10:15:43.909Z,25.10
2024-04-08T10:20:46.030Z,25.20
2024-04-08T10:25:50.830Z,25.30
2024-04-08T10:30:52.870Z,25.40
2024-04-08T10:35:55.598Z,25.80
2024-04-08T10:41:07.437Z,26.00
2024-04-08T10:46:18.975Z,26.30
2024-04-08T10:51:21.088Z,26.60
2024-04-08T10:56:23.269Z,26.90
2024-04-08T11:01:26.388Z,27.20
2024-04-08T11:06:29.812Z,27.40
2024-04-08T11:11:33.062Z,27.70
2024-04-08T11:16:35.170Z,28.00
2024-04-08T11:21:37.268Z,28.30
2024-04-08T11:26:48.679Z,28.40
2024-04-08T11:31:54.929Z,28.50
2024-04-08T11:36:56.924Z,28.60
2024-04-08T11:41:58.862Z,28.60
2024-04-08T11:47:01.280Z,28.60
2024-04-08T11:52:06.751Z,28.60
2024-04-08T11:57:10.345Z,28.70
2024-04-08T12:02:12.407Z,29.00
2024-04-08T12:07:15.045Z,29.20
2024-04-08T12:12:18.664Z,29.40
2024-04-08T12:17:20.678Z,29.60
2024-04-08T12:22:22.884Z,29.80
2024-04-08T12:27:28.944Z,29.80
2024-04-08T12:32:30.955Z,29.50
2024-04-08T12:37:33.025Z,29.00
2024-04-08T12:42:34.966Z,28.50
2024-04-08T12:47:39.718Z,28.10
2024-04-08T12:52:42.167Z,27.80
2024-04-08T12:57:45.103Z,27.70
2024-04-08T13:02:47.367Z,27.70
2024-04-08T13:07:49.388Z,27.70
2024-04-08T13:12:51.456Z,27.90
2024-04-08T13:17:53.530Z,28.00
2024-04-08T13:22:55.682Z,28.10
2024-04-08T13:27:57.690Z,28.30
2024-04-08T13:33:00.389Z,28.30
2024-04-08T13:38:02.496Z,28.30
2024-04-08T13:43:04.573Z,28.30
2024-04-08T13:48:07.498Z,28.40
2024-04-08T13:53:09.491Z,28.50
2024-04-08T13:58:11.439Z,28.60
2024-04-08T14:03:13.436Z,28.70
2024-04-08T14:08:15.465Z,28.80
2024-04-08T14:13:17.498Z,29.00
2024-04-08T14:18:19.684Z,29.30
2024-04-08T14:23:21.701Z,29.70
2024-04-08T14:28:23.655Z,30.00
2024-04-08T14:33:25.935Z,30.30
2024-04-08T14:38:46.999Z,30.60
2024-04-08T14:43:59.829Z,30.90
2024-04-08T14:49:06.011Z,31.20
2024-04-08T14:54:08.127Z,31.30
2024-04-08T14:59:10.395Z,31.40
2024-04-08T15:04:12.463Z,31.40
2024-04-08T15:09:14.528Z,31.50
2024-04-08T15:14:16.634Z,31.60
2024-04-08T15:19:18.706Z,31.60
2024-04-08T15:24:20.679Z,31.60
2024-04-08T15:29:22.741Z,31.50
2024-04-08T15:34:24.973Z,31.50
2024-04-08T15:39:27.225Z,31.50
2024-04-08T15:44:29.295Z,31.30
2024-04-08T15:49:31.346Z,31.10
2024-04-08T15:54:34.980Z,30.90
2024-04-08T15:59:36.977Z,30.70
2024-04-08T16:04:39.204Z,30.60
2024-04-08T16:09:41.345Z,30.50
2024-04-08T16:14:43.488Z,30.50
2024-04-08T16:19:48.276Z,30.40
2024-04-08T16:24:52.275Z,30.40
2024-04-08T16:29:54.326Z,30.30
2024-04-08T16:34:56.291Z,30.20
2024-04-08T16:39:58.270Z,30.20
2024-04-08T16:45:00.355Z,30.10
2024-04-08T16:50:02.367Z,30.00
2024-04-08T16:55:05.120Z,29.80
2024-04-08T17:00:07.839Z,29.70
2024-04-08T17:05:10.014Z,29.70
2024-04-08T17:10:12.060Z,29.50
2024-04-08T17:15:14.193Z,29.50
2024-04-08T17:20:16.292Z,29.50
2024-04-08T17:25:18.846Z,29.30
2024-04-08T17:30:20.935Z,29.20
2024-04-08T17:35:22.963Z,28.90
2024-04-08T17:40:25.325Z,28.50
2024-04-08T17:45:27.623Z,28.20
2024-04-08T17:50:29.819Z,27.90
2024-04-08T17:55:32.579Z,27.50
2024-04-08T18:00:37.583Z,27.20
2024-04-08T18:05:39.739Z,26.90
2024-04-08T18:10:41.993Z,26.70
2024-04-08T18:15:44.076Z,26.70
2024-04-08T18:20:46.137Z,26.60
2024-04-08T18:25:57.889Z,26.40
2024-04-08T18:31:03.584Z,26.40
2024-04-08T18:36:07.861Z,26.20
2024-04-08T18:41:15.261Z,26.10
2024-04-08T18:46:25.208Z,26.00
2024-04-08T18:51:27.397Z,25.90
2024-04-08T18:56:29.385Z,25.90
2024-04-08T19:01:31.683Z,25.90
2024-04-08T19:06:34.608Z,25.60
2024-04-08T19:11:45.552Z,25.60
2024-04-08T19:16:56.627Z,25.60
2024-04-08T19:21:58.674Z,25.60
2024-04-08T19:27:01.096Z,25.60
2024-04-08T19:32:03.276Z,25.60
2024-04-08T19:37:07.571Z,25.50
2024-04-08T19:42:10.084Z,25.40
2024-04-08T19:47:13.026Z,25.20
2024-04-08T19:52:15.097Z,25.00
2024-04-08T19:57:17.314Z,24.80
2024-04-08T20:02:19.416Z,24.70
2024-04-08T20:07:21.819Z,24.70
2024-04-08T20:12:23.847Z,24.60
2024-04-08T20:17:27.038Z,24.50
2024-04-08T20:22:29.067Z,24.50
2024-04-08T20:27:31.276Z,24.50
2024-04-08T20:32:33.440Z,24.50
2024-04-08T20:37:35.498Z,24.50
2024-04-08T20:42:37.550Z,24.40
2024-04-08T20:47:39.613Z,24.30
2024-04-08T20:52:41.686Z,24.20
2024-04-08T20:57:43.650Z,24.10
2024-04-08T21:02:50.132Z,23.80
2024-04-08T21:07:52.141Z,23.70
2024-04-08T21:12:54.236Z,23.60
2024-04-08T21:17:58.439Z,23.60
2024-04-08T21:23:02.600Z,23.50
2024-04-08T21:28:06.471Z,23.40
2024-04-08T21:33:08.723Z,23.40
2024-04-08T21:38:12.818Z,23.30
2024-04-08T21:43:14.838Z,23.00
2024-04-08T21:48:16.953Z,22.80
2024-04-08T21:53:21.604Z,22.70
2024-04-08T21:58:24.288Z,22.70
2024-04-08T22:03:27.371Z,22.60
2024-04-08T22:08:29.821Z,22.50
2024-04-08T22:13:31.957Z,22.40
2024-04-08T22:18:34.273Z,22.40
2024-04-08T22:23:36.443Z,22.30
2024-04-08T22:28:38.489Z,22.20
2024-04-08T22:33:40.656Z,22.10
2024-04-08T22:38:42.765Z,21.80
2024-04-08T22:43:44.696Z,21.70
2024-04-08T22:48:46.742Z,21.70
2024-04-08T22:53:48.716Z,21.70
2024-04-08T22:58:50.705Z,21.70
2024-04-08T23:03:52.945Z,21.70
2024-04-08T23:08:55.069Z,21.50
2024-04-08T23:13:57.069Z,21.40
2024-04-08T23:18:59.185Z,21.30
2024-04-08T23:24:01.328Z,21.20
2024-04-08T23:29:03.397Z,21.10
2024-04-08T23:34:07.748Z,21.10
2024-04-08T23:39:12.297Z,21.00
2024-04-08T23:44:15.047Z,20.90
2024-04-08T23:49:17.071Z,20.70
2024-04-08T23:54:19.084Z,20.70
2024-04-08T23:59:21.542Z,20.60
